Ramsey, United Kingdom
Current Conditions -  °F | °C
As of 7:50 PM on Tuesday 21 Oct 2014 (Local Time) from EGXT Reporting Station
Clear Clear  
Wind Chill: 38°   Ceiling: Unl
Heat Index: 46°   Visibility: 6mi
Dew Point: 37°   Wind: 28mph
Humidity: 71%   Direction: 290°WNW
Pressure: 29.88"   Gusts: 39mph
Location:  52.45°N, 0.11°W
Report Text: EGXT 211850Z AUTO 29024G34KT 9999 // NCD 08/03 Q1012
Loading
Personal Weather Stations






























Interactive Weather Map
Tropical Storm Tracking
New forecast layout! Learn more

10-Day Weather Forecast

Advertisements
Track Severe Weather on mobile